This is the latest recevied weather packets stored in our database for station/object WV5G-13. If no packets are shown the sender has not sent any weather packets the latest 10 day(s).
| Time | Temp. | Humidity | Pressure | Rain* | Wind** | Luminosity | Snow |
|---|---|---|---|---|---|---|---|
| 1778074918 | 6.67° C | 71% | 1013 hPa | 0 mm | - | 159 W/m² | - |
| 1778074616 | 6.67° C | 71% | 1013.2 hPa | 0 mm | - | 133 W/m² | - |
| 1778074312 | 6.11° C | 72% | 1013.2 hPa | 0 mm | - | 129 W/m² | - |
| 1778074009 | 6.11° C | 72% | 1013.3 hPa | 0 mm | - | 138 W/m² | - |
| 1778073706 | 6.11° C | 72% | 1013.5 hPa | 0 mm | - | 121 W/m² | - |
| 1778073404 | 6.11° C | 71% | 1013.6 hPa | 0 mm | - | 112 W/m² | - |
| 1778073100 | 6.11° C | 71% | 1013.9 hPa | 0 mm | - | 91 W/m² | - |
| 1778072797 | 6.11° C | 72% | 1013.8 hPa | 0 mm | - | 78 W/m² | - |
| 1778072494 | 6.11° C | 72% | 1013.8 hPa | 0 mm | - | 70 W/m² | - |
| 1778072192 | 6.11° C | 72% | 1013.6 hPa | 0 mm | - | 59 W/m² | - |
| 1778071889 | 6.11° C | 72% | 1013.6 hPa | 0 mm | - | 72 W/m² | - |
| 1778071587 | 5.56° C | 73% | 1013.3 hPa | 0 mm | - | 68 W/m² | - |
| 1778071285 | 5.56° C | 73% | 1013.5 hPa | 0 mm | - | 45 W/m² | - |
| 1778070982 | 5.56° C | 73% | 1013.9 hPa | 0 mm | - | 19 W/m² | - |
| 1778070681 | 5.56° C | 73% | 1013.7 hPa | 0 mm | - | 16 W/m² | - |
| 1778070377 | 5.56° C | 73% | 1013.5 hPa | 0 mm | - | 18 W/m² | - |
| 1778070075 | 5.56° C | 74% | 1013.5 hPa | 0 mm | - | 17 W/m² | - |
| 1778069773 | 5.56° C | 74% | 1013.5 hPa | 0 mm | - | 11 W/m² | - |
| 1778069469 | 5.56° C | 74% | 1013.2 hPa | 0 mm | - | 8 W/m² | - |
| 1778069167 | 5.56° C | 74% | 1013.2 hPa | 0 mm | - | 8 W/m² | - |
| 1778068864 | 5.56° C | 74% | 1013 hPa | 0 mm | - | 6 W/m² | - |
| 1778068562 | 5.56° C | 74% | 1012.9 hPa | 0 mm | - | 5 W/m² | - |
| 1778068260 | 5.56° C | 74% | 1013 hPa | 0 mm | - | 2 W/m² | - |
| 1778067957 | 5.56° C | 74% | 1012.8 hPa | 0 mm | - | 1 W/m² | - |
| 1778067655 | 5.56° C | 73% | 1012.9 hPa | 0 mm | - | 0 W/m² | - |
* Rain latest hour (hover to see other rain measurements)
** Current wind speed in m/s (hover to see current wind gust speed)